createdAt,value
2023-02-15T00:00:12.212Z,101521.91
2023-02-15T00:03:17.548Z,101517.31
2023-02-15T00:06:22.072Z,101522.63
2023-02-15T00:09:25.185Z,101516.75
2023-02-15T00:12:28.199Z,101521.25
2023-02-15T00:15:31.357Z,101520.16
2023-02-15T00:18:34.540Z,101523.84
2023-02-15T00:21:39.398Z,101516.62
2023-02-15T00:24:42.042Z,101520.63
2023-02-15T00:27:44.971Z,101522.72
2023-02-15T00:30:47.634Z,101527.78
2023-02-15T00:33:50.533Z,101520.81
2023-02-15T00:36:53.905Z,101519.22
2023-02-15T00:39:57.054Z,101519.69
2023-02-15T00:43:00.314Z,101524.72
2023-02-15T00:46:05.414Z,101518.25
2023-02-15T00:49:09.616Z,101522.78
2023-02-15T00:52:14.807Z,101509.69
2023-02-15T00:55:17.779Z,101518.22
2023-02-15T00:58:22.234Z,101509.44
2023-02-15T01:01:25.169Z,101508.59
2023-02-15T01:04:28.400Z,101504.59
2023-02-15T01:07:33.426Z,101508.63
2023-02-15T01:10:37.225Z,101499.88
2023-02-15T01:13:40.376Z,101501.97
2023-02-15T01:16:43.613Z,101504.37
2023-02-15T01:19:46.659Z,101500.63
2023-02-15T01:22:50.932Z,101494.50
2023-02-15T01:25:53.715Z,101495.06
2023-02-15T01:28:57.456Z,101489.97
2023-02-15T01:32:00.440Z,101482.25
2023-02-15T01:35:04.308Z,101488.38
2023-02-15T01:38:08.227Z,101495.25
2023-02-15T01:41:28.268Z,101491.28
2023-02-15T01:44:43.304Z,101491.78
2023-02-15T01:47:55.894Z,101489.41
2023-02-15T01:51:02.165Z,101480.25
2023-02-15T01:54:41.328Z,101482.34
2023-02-15T01:57:45.251Z,101479.06
2023-02-15T02:00:49.631Z,101478.06
2023-02-15T02:04:19.292Z,101483.12
2023-02-15T02:07:23.925Z,101472.44
2023-02-15T02:10:27.599Z,101466.88
2023-02-15T02:13:33.167Z,101467.31
2023-02-15T02:16:44.835Z,101462.56
2023-02-15T02:20:10.635Z,101466.25
2023-02-15T02:23:19.705Z,101462.50
2023-02-15T02:26:58.292Z,101469.16
2023-02-15T02:30:19.720Z,101477.37
2023-02-15T02:33:32.030Z,101470.87
2023-02-15T02:37:09.568Z,101463.09
2023-02-15T02:40:27.304Z,101463.38
2023-02-15T02:43:45.814Z,101467.34
2023-02-15T02:46:54.134Z,101472.19
2023-02-15T02:50:03.809Z,101472.44
2023-02-15T02:53:07.364Z,101475.25
2023-02-15T02:56:22.747Z,101467.28
2023-02-15T02:59:27.293Z,101467.50
2023-02-15T03:02:33.724Z,101464.78
2023-02-15T03:05:39.902Z,101472.75
2023-02-15T03:08:46.485Z,101473.00
2023-02-15T03:11:49.671Z,101465.50
2023-02-15T03:14:54.731Z,101466.28
2023-02-15T03:18:00.350Z,101466.78
2023-02-15T03:21:04.458Z,101459.59
2023-02-15T03:24:16.407Z,101465.66
2023-02-15T03:27:23.852Z,101463.84
2023-02-15T03:30:29.076Z,101460.69
2023-02-15T03:33:33.178Z,101461.50
2023-02-15T03:36:45.916Z,101458.31
2023-02-15T03:40:43.817Z,101466.53
2023-02-15T03:44:05.834Z,101459.34
2023-02-15T03:47:17.649Z,101465.66
2023-02-15T03:50:55.091Z,101471.25
2023-02-15T03:53:58.596Z,101472.28
2023-02-15T03:57:21.448Z,101469.94
2023-02-15T04:00:44.363Z,101474.72
2023-02-15T04:03:56.463Z,101469.84
2023-02-15T04:06:59.572Z,101484.13
2023-02-15T04:10:21.329Z,101479.06
2023-02-15T04:13:25.877Z,101488.66
2023-02-15T04:16:31.205Z,101480.13
2023-02-15T04:19:52.877Z,101482.16
2023-02-15T04:23:14.563Z,101490.31
2023-02-15T04:26:18.004Z,101489.47
2023-02-15T04:29:22.257Z,101478.28
2023-02-15T04:32:25.981Z,101480.59
2023-02-15T04:35:29.061Z,101487.22
2023-02-15T04:38:32.514Z,101488.22
2023-02-15T04:41:35.835Z,101486.34
2023-02-15T04:44:38.756Z,101487.69
2023-02-15T04:47:42.448Z,101492.66
2023-02-15T04:50:45.786Z,101493.16
2023-02-15T04:53:48.956Z,101482.78
2023-02-15T04:56:51.796Z,101484.56
2023-02-15T04:59:55.069Z,101495.91
2023-02-15T05:02:57.914Z,101494.31
2023-02-15T05:06:01.387Z,101490.78
2023-02-15T05:09:04.538Z,101492.16
2023-02-15T05:12:08.209Z,101492.22
2023-02-15T05:15:11.161Z,101487.72
2023-02-15T05:18:15.094Z,101484.78
2023-02-15T05:21:17.922Z,101480.94
2023-02-15T05:24:39.849Z,101479.91
2023-02-15T05:28:02.189Z,101489.25
2023-02-15T05:31:15.808Z,101481.81
2023-02-15T05:34:18.779Z,101491.09
2023-02-15T05:37:22.229Z,101486.84
2023-02-15T05:40:25.320Z,101497.78
2023-02-15T05:43:28.524Z,101494.13
2023-02-15T05:46:31.453Z,101492.84
2023-02-15T05:49:34.694Z,101499.75
2023-02-15T05:52:37.526Z,101503.97
2023-02-15T05:55:41.680Z,101497.06
2023-02-15T05:58:44.756Z,101508.00
2023-02-15T06:01:47.859Z,101505.34
2023-02-15T06:04:51.085Z,101505.16
2023-02-15T06:07:53.966Z,101508.47
2023-02-15T06:10:57.149Z,101513.16
2023-02-15T06:14:00.697Z,101512.91
2023-02-15T06:17:03.898Z,101512.91
2023-02-15T06:20:07.909Z,101519.03
2023-02-15T06:23:11.103Z,101521.44
2023-02-15T06:26:14.037Z,101521.94
2023-02-15T06:29:17.137Z,101528.69
2023-02-15T06:32:19.920Z,101526.91
2023-02-15T06:35:23.082Z,101522.63
2023-02-15T06:38:25.926Z,101522.88
2023-02-15T06:41:29.035Z,101534.87
2023-02-15T06:44:31.824Z,101531.53
2023-02-15T06:47:35.495Z,101536.56
2023-02-15T06:50:38.675Z,101530.47
2023-02-15T06:53:43.912Z,101532.41
2023-02-15T06:56:47.988Z,101536.94
2023-02-15T06:59:51.202Z,101530.84
2023-02-15T07:02:59.283Z,101531.97
2023-02-15T07:06:07.169Z,101535.00
2023-02-15T07:09:11.039Z,101536.44
2023-02-15T07:12:32.734Z,101541.69
2023-02-15T07:15:35.685Z,101538.66
2023-02-15T07:18:39.343Z,101541.44
2023-02-15T07:21:42.189Z,101545.50
2023-02-15T07:24:45.268Z,101563.47
2023-02-15T07:27:48.422Z,101547.00
2023-02-15T07:30:52.045Z,101553.50
2023-02-15T07:33:56.220Z,101550.44
2023-02-15T07:36:59.322Z,101551.84
2023-02-15T07:40:02.752Z,101541.50
2023-02-15T07:43:06.099Z,101543.91
2023-02-15T07:46:12.698Z,101543.91
2023-02-15T07:49:15.992Z,101542.06
2023-02-15T07:52:18.801Z,101541.16
2023-02-15T07:55:22.230Z,101549.25
2023-02-15T07:58:45.172Z,101539.16
2023-02-15T08:01:48.389Z,101531.69
2023-02-15T08:04:52.383Z,101537.53
2023-02-15T08:07:55.199Z,101535.16
2023-02-15T08:11:21.809Z,101519.75
2023-02-15T08:14:24.703Z,101522.44
2023-02-15T08:17:27.814Z,101504.81
2023-02-15T08:20:30.626Z,101507.81
2023-02-15T08:23:33.666Z,101510.25
2023-02-15T08:26:37.059Z,101509.69
2023-02-15T08:29:40.633Z,101503.03
2023-02-15T08:32:43.474Z,101506.47
2023-02-15T08:35:46.782Z,101512.16
2023-02-15T08:38:50.283Z,101508.94
2023-02-15T08:41:53.855Z,101512.44
2023-02-15T08:44:56.855Z,101512.72
2023-02-15T08:48:00.117Z,101516.19
2023-02-15T08:51:19.743Z,101514.31
2023-02-15T08:54:24.492Z,101519.13
2023-02-15T08:57:28.425Z,101516.97
2023-02-15T09:00:32.422Z,101511.59
2023-02-15T09:03:35.371Z,101508.66
2023-02-15T09:06:39.760Z,101506.44
2023-02-15T09:09:42.776Z,101503.69
2023-02-15T09:12:46.035Z,101505.25
2023-02-15T09:15:49.065Z,101504.13
2023-02-15T09:18:52.875Z,101503.38
2023-02-15T09:21:56.225Z,101502.53
2023-02-15T09:24:59.669Z,101502.41
2023-02-15T09:28:02.611Z,101495.91
2023-02-15T09:31:17.526Z,101497.19
2023-02-15T09:34:22.402Z,101491.69
2023-02-15T09:37:25.925Z,101485.97
2023-02-15T09:40:33.242Z,101485.66
2023-02-15T09:43:52.170Z,101484.41
2023-02-15T09:47:17.524Z,101491.84
2023-02-15T09:50:32.516Z,101503.38
2023-02-15T09:54:05.179Z,101494.84
2023-02-15T09:57:34.599Z,101490.87
2023-02-15T10:00:46.495Z,101496.72
2023-02-15T10:04:06.361Z,101500.81
2023-02-15T10:07:48.024Z,101491.37
2023-02-15T10:11:34.028Z,101495.34
2023-02-15T10:14:55.343Z,101491.56
2023-02-15T10:18:20.727Z,101492.78
2023-02-15T10:21:54.445Z,101495.00
2023-02-15T10:25:30.779Z,101485.63
2023-02-15T10:28:55.210Z,101482.19
2023-02-15T10:32:18.105Z,101484.09
2023-02-15T10:35:31.061Z,101476.63
2023-02-15T10:39:11.527Z,101474.72
2023-02-15T10:42:14.405Z,101473.63
2023-02-15T10:45:29.808Z,101480.28
2023-02-15T10:48:53.007Z,101466.16
2023-02-15T10:52:08.160Z,101466.12
2023-02-15T10:55:20.044Z,101458.91
2023-02-15T10:58:26.886Z,101459.03
2023-02-15T11:01:38.785Z,101451.16
2023-02-15T11:05:35.504Z,101447.31
2023-02-15T11:08:42.068Z,101436.78
2023-02-15T11:11:50.510Z,101437.13
2023-02-15T11:15:04.835Z,101432.34
2023-02-15T11:18:39.954Z,101425.47
2023-02-15T11:21:47.269Z,101420.69
2023-02-15T11:24:50.695Z,101419.38
2023-02-15T11:27:54.200Z,101408.09
2023-02-15T11:30:59.516Z,101404.97
2023-02-15T11:34:06.407Z,101407.53
2023-02-15T11:37:12.852Z,101396.13
2023-02-15T11:40:26.672Z,101392.25
2023-02-15T11:43:36.086Z,101396.69
2023-02-15T11:46:39.432Z,101387.13
2023-02-15T11:49:45.820Z,101385.56
2023-02-15T11:52:53.730Z,101389.03
2023-02-15T11:55:57.305Z,101385.31
2023-02-15T11:59:14.708Z,101379.81
2023-02-15T12:02:21.555Z,101374.78
2023-02-15T12:05:26.467Z,101370.41
2023-02-15T12:08:39.626Z,101370.44
2023-02-15T12:11:43.206Z,101352.25
2023-02-15T12:14:50.997Z,101358.31
2023-02-15T12:17:56.097Z,101357.50
2023-02-15T12:21:01.405Z,101353.47
2023-02-15T12:24:17.446Z,101348.59
2023-02-15T12:27:33.914Z,101345.28
2023-02-15T12:30:37.793Z,101340.03
2023-02-15T12:33:46.590Z,101336.91
2023-02-15T12:36:55.573Z,101334.28
2023-02-15T12:40:03.577Z,101324.13
2023-02-15T12:43:26.843Z,101321.25
2023-02-15T12:46:30.135Z,101327.19
2023-02-15T12:49:37.900Z,101328.47
2023-02-15T12:52:41.184Z,101322.81
2023-02-15T12:55:52.039Z,101315.31
2023-02-15T12:59:06.950Z,101309.72
2023-02-15T13:02:11.227Z,101306.47
2023-02-15T13:05:40.055Z,101306.72
2023-02-15T13:08:52.131Z,101307.56
2023-02-15T13:11:55.167Z,101297.03
2023-02-15T13:15:00.283Z,101295.13
2023-02-15T13:18:03.278Z,101284.13
2023-02-15T13:21:22.254Z,101292.88
2023-02-15T13:24:27.986Z,101288.56
2023-02-15T13:27:38.848Z,101277.56
2023-02-15T13:30:48.261Z,101272.69
2023-02-15T13:33:58.134Z,101263.00
2023-02-15T13:37:03.926Z,101272.91
2023-02-15T13:40:39.563Z,101264.47
2023-02-15T13:44:04.286Z,101258.41
2023-02-15T13:47:30.558Z,101263.13
2023-02-15T13:50:58.146Z,101266.47
2023-02-15T13:54:10.826Z,101259.81
2023-02-15T13:57:28.894Z,101255.31
2023-02-15T14:00:35.002Z,101251.56
2023-02-15T14:04:00.356Z,101255.88
2023-02-15T14:07:06.424Z,101253.56
2023-02-15T14:10:29.518Z,101243.41
2023-02-15T14:13:53.149Z,101251.25
2023-02-15T14:17:17.804Z,101252.88
2023-02-15T14:20:51.719Z,101260.75
2023-02-15T14:24:10.319Z,101253.81
2023-02-15T14:27:32.145Z,101260.81
2023-02-15T14:30:42.757Z,101254.34
2023-02-15T14:33:54.924Z,101247.88
2023-02-15T14:36:58.499Z,101250.37
2023-02-15T14:40:29.070Z,101243.44
2023-02-15T14:43:54.764Z,101239.00
2023-02-15T14:47:11.555Z,101235.75
2023-02-15T14:50:38.324Z,101242.78
2023-02-15T14:53:43.182Z,101235.16
2023-02-15T14:56:48.311Z,101234.97
2023-02-15T14:59:51.416Z,101225.50
2023-02-15T15:02:55.518Z,101232.34
2023-02-15T15:06:03.804Z,101233.56
2023-02-15T15:09:26.119Z,101223.37
2023-02-15T15:12:35.282Z,101217.63
2023-02-15T15:15:48.107Z,101223.37
2023-02-15T15:18:51.551Z,101211.56
2023-02-15T15:21:55.812Z,101208.75
2023-02-15T15:25:10.865Z,101219.69
2023-02-15T15:28:33.700Z,101212.87
2023-02-15T15:31:58.269Z,101216.44
2023-02-15T15:35:14.366Z,101218.84
2023-02-15T15:38:29.551Z,101205.63
2023-02-15T15:41:50.154Z,101208.62
2023-02-15T15:45:12.587Z,101212.19
2023-02-15T15:48:36.591Z,101211.00
2023-02-15T15:51:44.335Z,101207.44
2023-02-15T15:54:54.840Z,101201.22
2023-02-15T15:58:01.533Z,101203.03
2023-02-15T16:01:09.214Z,101202.84
2023-02-15T16:04:14.989Z,101202.75
2023-02-15T16:07:18.511Z,101205.72
2023-02-15T16:10:27.836Z,101194.62
2023-02-15T16:13:31.271Z,101200.50
2023-02-15T16:16:34.932Z,101201.72
2023-02-15T16:19:41.210Z,101205.03
2023-02-15T16:22:47.521Z,101206.09
2023-02-15T16:26:00.837Z,101208.25
2023-02-15T16:29:16.426Z,101214.22
2023-02-15T16:32:23.566Z,101207.09
2023-02-15T16:35:27.342Z,101213.41
2023-02-15T16:38:47.147Z,101217.69
2023-02-15T16:41:56.364Z,101205.81
2023-02-15T16:45:09.402Z,101204.25
2023-02-15T16:48:25.897Z,101205.50
2023-02-15T16:51:32.069Z,101207.59
2023-02-15T16:54:37.125Z,101204.84
2023-02-15T16:57:44.823Z,101218.09
2023-02-15T17:00:49.832Z,101220.22
2023-02-15T17:04:13.829Z,101221.84
2023-02-15T17:07:22.340Z,101227.59
2023-02-15T17:10:43.362Z,101220.84
2023-02-15T17:14:21.935Z,101220.94
2023-02-15T17:17:26.367Z,101216.25
2023-02-15T17:20:34.211Z,101220.63
2023-02-15T17:24:05.678Z,101223.59
2023-02-15T17:27:26.417Z,101219.19
2023-02-15T17:30:36.262Z,101217.19
2023-02-15T17:33:44.417Z,101212.78
2023-02-15T17:37:26.843Z,101222.03
2023-02-15T17:40:35.657Z,101217.81
2023-02-15T17:43:43.022Z,101208.56
2023-02-15T17:46:48.173Z,101210.91
2023-02-15T17:49:53.523Z,101220.19
2023-02-15T17:53:00.112Z,101220.53
2023-02-15T17:56:11.045Z,101215.56
2023-02-15T17:59:16.573Z,101207.41
2023-02-15T18:02:41.076Z,101201.53
2023-02-15T18:06:05.357Z,101209.28
2023-02-15T18:09:38.246Z,101212.63
2023-02-15T18:12:45.305Z,101212.06
2023-02-15T18:15:53.158Z,101204.66
2023-02-15T18:18:58.197Z,101208.12
2023-02-15T18:22:03.420Z,101203.28
2023-02-15T18:25:14.654Z,101205.28
2023-02-15T18:28:20.572Z,101202.66
2023-02-15T18:31:25.551Z,101201.44
2023-02-15T18:34:38.958Z,101192.56
2023-02-15T18:37:51.969Z,101202.38
2023-02-15T18:40:58.122Z,101208.22
2023-02-15T18:44:04.152Z,101207.47
2023-02-15T18:47:08.797Z,101205.41
2023-02-15T18:50:19.191Z,101209.84
2023-02-15T18:53:24.448Z,101205.59
2023-02-15T18:56:32.103Z,101205.38
2023-02-15T18:59:37.940Z,101205.53
2023-02-15T19:02:45.279Z,101196.41
2023-02-15T19:05:49.935Z,101201.72
2023-02-15T19:08:56.328Z,101206.78
2023-02-15T19:12:01.989Z,101204.84
2023-02-15T19:15:10.427Z,101205.41
2023-02-15T19:18:14.880Z,101202.72
2023-02-15T19:21:21.404Z,101203.59
2023-02-15T19:24:43.140Z,101209.22
2023-02-15T19:27:50.152Z,101209.22
2023-02-15T19:30:59.511Z,101209.31
2023-02-15T19:34:18.983Z,101199.47
2023-02-15T19:37:35.892Z,101198.47
2023-02-15T19:40:41.250Z,101195.06
2023-02-15T19:43:55.313Z,101197.44
2023-02-15T19:47:02.144Z,101196.97
2023-02-15T19:50:08.742Z,101197.03
2023-02-15T19:53:27.728Z,101202.38
2023-02-15T19:56:33.146Z,101203.13
2023-02-15T19:59:43.851Z,101206.91
2023-02-15T20:02:54.638Z,101204.28
2023-02-15T20:06:03.409Z,101199.87
2023-02-15T20:09:12.754Z,101198.22
2023-02-15T20:12:24.582Z,101201.12
2023-02-15T20:15:37.586Z,101193.44
2023-02-15T20:18:47.187Z,101192.34
2023-02-15T20:21:56.395Z,101196.63
2023-02-15T20:25:02.512Z,101196.84
2023-02-15T20:28:10.768Z,101194.41
2023-02-15T20:31:17.638Z,101191.22
2023-02-15T20:34:25.323Z,101193.91
2023-02-15T20:37:34.199Z,101192.84
2023-02-15T20:40:59.474Z,101195.09
2023-02-15T20:44:20.892Z,101185.44
2023-02-15T20:47:27.703Z,101185.78
2023-02-15T20:50:36.423Z,101185.28
2023-02-15T20:53:41.142Z,101186.41
2023-02-15T20:56:47.176Z,101179.75
2023-02-15T20:59:55.092Z,101189.97
2023-02-15T21:03:02.272Z,101180.31
2023-02-15T21:06:05.960Z,101182.72
2023-02-15T21:09:16.335Z,101183.81
2023-02-15T21:12:22.930Z,101175.59
2023-02-15T21:15:33.560Z,101177.59
2023-02-15T21:18:41.290Z,101182.53
2023-02-15T21:21:48.663Z,101181.22
2023-02-15T21:24:54.236Z,101182.34
2023-02-15T21:28:02.696Z,101176.03
2023-02-15T21:31:18.270Z,101179.84
2023-02-15T21:34:23.152Z,101172.91
2023-02-15T21:37:34.068Z,101181.72
2023-02-15T21:40:39.959Z,101180.72
2023-02-15T21:44:01.903Z,101172.22
2023-02-15T21:47:27.607Z,101178.66
2023-02-15T21:50:49.847Z,101175.22
2023-02-15T21:53:53.401Z,101183.50
2023-02-15T21:56:57.986Z,101180.34
2023-02-15T22:00:02.901Z,101179.78
2023-02-15T22:03:12.463Z,101182.47
2023-02-15T22:06:16.145Z,101176.59
2023-02-15T22:09:22.413Z,101176.09
2023-02-15T22:12:25.926Z,101177.97
2023-02-15T22:15:33.311Z,101173.94
2023-02-15T22:18:36.753Z,101188.63
2023-02-15T22:21:39.565Z,101186.25
2023-02-15T22:24:44.865Z,101186.53
2023-02-15T22:27:50.066Z,101185.22
2023-02-15T22:30:54.369Z,101180.97
2023-02-15T22:33:57.523Z,101192.69
2023-02-15T22:37:01.456Z,101190.81
2023-02-15T22:40:05.550Z,101191.34
2023-02-15T22:43:21.528Z,101192.97
2023-02-15T22:46:25.468Z,101195.09
2023-02-15T22:49:29.343Z,101190.56
2023-02-15T22:52:32.353Z,101183.31
2023-02-15T22:55:37.188Z,101186.78
2023-02-15T22:58:40.216Z,101180.34
2023-02-15T23:01:43.701Z,101170.69
2023-02-15T23:04:47.320Z,101166.13
2023-02-15T23:07:51.195Z,101157.56
2023-02-15T23:10:56.313Z,101168.81
2023-02-15T23:13:59.550Z,101162.69
2023-02-15T23:17:02.745Z,101162.66
2023-02-15T23:20:06.671Z,101160.78
2023-02-15T23:23:14.128Z,101159.75
2023-02-15T23:26:27.793Z,101162.47
2023-02-15T23:29:31.167Z,101148.59
2023-02-15T23:32:34.654Z,101152.63
2023-02-15T23:35:37.680Z,101149.47
2023-02-15T23:38:41.070Z,101156.16
2023-02-15T23:41:44.001Z,101157.22
2023-02-15T23:44:48.334Z,101151.34
2023-02-15T23:48:10.132Z,101152.69
2023-02-15T23:51:13.817Z,101147.09
2023-02-15T23:54:18.216Z,101144.91
2023-02-15T23:57:21.502Z,101147.03
